M I D A S
Marine Information and Data Acquisition System
Tripno 68 of the Zeeleeuw from 2001-11-29 08:50:00 to 2001-11-29 17:00:00
Back to CruiseResearch ActivitiesStationsMapUnderway DataData graphs

EquipmentUnitsComments
TimeDGPSUTC
LatitudeDGPSDM.mWGS84
LongitudeDGPSDM.mWGS84
SpeedMeteo Stationm/sRelative wind speed
DirectionMeteo StationdegRelative wind direction
TemperatureMeteo Stationdeg CelciusAir temperature
PressureMeteo StationPaAtmospheric pressure
HumidityMeteo Station%Relative humidity
Missing or incorrect values are displayed as -999
Metereological data collected by the RV Zeeleeuw from 2001-11-29 08:50:00 to 2001-11-29 17:00:00
                                                                                    Next 1000 lines
Time Latitude Longitude Speed Direction Temperature Pressure Humidity
2001-11-29 08:50:07 51°20.311 2°58.781 7 126 8.6 101440 91
2001-11-29 08:50:13 51°20.332 2°58.769 4.1 137 8.6 101440 92
2001-11-29 08:50:17 51°20.346 2°58.761 5.2 141 8.6 101440 92
2001-11-29 08:50:21 51°20.36 2°58.752 4.3 130 8.6 101440 92
2001-11-29 08:50:28 51°20.384 2°58.738 0.5 197 8.6 101440 92
2001-11-29 08:50:33 51°20.401 2°58.726 2.8 109 8.6 101430 92
2001-11-29 08:50:37 51°20.414 2°58.716 2 102 8.6 101430 92
2001-11-29 08:50:42 51°20.432 2°58.707 3.4 108 8.6 101440 92
2001-11-29 08:50:48 51°20.452 2°58.691 3.2 123 8.6 101440 92
2001-11-29 08:50:53 51°20.469 2°58.682 3.1 119 8.6 101430 92
2001-11-29 08:50:57 51°20.483 2°58.671 4.7 124 8.6 101430 92
2001-11-29 08:51:03 51°20.503 2°58.658 3.4 125 8.6 101430 92
2001-11-29 08:51:08 51°20.52 2°58.645 4.9 132 8.6 101430 92
2001-11-29 08:51:13 51°20.537 2°58.635 4.3 112 8.6 101420 92
2001-11-29 08:51:17 51°20.551 2°58.627 3.6 111 8.6 101420 92
2001-11-29 08:51:21 51°20.564 2°58.617 6.9 135 8.6 101420 92
2001-11-29 08:51:28 51°20.589 2°58.602 2.1 123 8.6 101420 92
2001-11-29 08:51:33 51°20.606 2°58.59 3.8 119 8.7 101410 92
2001-11-29 08:51:37 51°20.62 2°58.583 3.7 135 8.7 101410 92
2001-11-29 08:51:43 51°20.64 2°58.569 2.2 108 8.6 101430 92
2001-11-29 08:51:47 51°20.654 2°58.561 3.1 115 8.6 101430 92
2001-11-29 08:51:53 51°20.675 2°58.547 4.6 112 8.7 101420 92
2001-11-29 08:51:57 51°20.688 2°58.539 4 126 8.7 101420 92
2001-11-29 08:52:03 51°20.709 2°58.525 4.3 104 8.6 101430 92
2001-11-29 08:52:08 51°20.726 2°58.514 5.3 122 8.6 101430 92
2001-11-29 08:52:13 51°20.743 2°58.502 5.2 129 8.6 101430 92
2001-11-29 08:52:18 51°20.761 2°58.491 3.3 108 8.6 101430 92
2001-11-29 08:52:22 51°20.774 2°58.482 3.7 108 8.6 101430 92
2001-11-29 08:52:28 51°20.795 2°58.469 6.7 123 8.6 101430 92
2001-11-29 08:52:33 51°20.812 2°58.458 6 137 8.7 101420 92
2001-11-29 08:52:38 51°20.83 2°58.448 2.8 106 8.7 101420 92
2001-11-29 08:52:43 51°20.847 2°58.437 1.4 99 8.7 101430 92
2001-11-29 08:52:48 51°20.865 2°58.428 2.8 123 8.7 101430 92
2001-11-29 08:52:53 51°20.882 2°58.416 4.7 117 8.7 101430 92
2001-11-29 08:52:57 51°20.896 2°58.408 7.9 125 8.7 101430 92
2001-11-29 08:53:03 51°20.917 2°58.396 5.9 122 8.7 101420 92
2001-11-29 08:53:08 51°20.934 2°58.384 4.5 119 8.7 101420 92
2001-11-29 08:53:13 51°20.951 2°58.374 5.3 121 8.7 101430 92
2001-11-29 08:53:17 51°20.965 2°58.366 2 115 8.7 101430 92
2001-11-29 08:53:23 51°20.986 2°58.353 5 125 8.7 101420 92
2001-11-29 08:53:28 51°21.004 2°58.343 2.3 95 8.7 101420 92
2001-11-29 08:53:32 51°21.017 2°58.333 5.9 116 8.7 101420 92
2001-11-29 08:53:38 51°21.038 2°58.321 7.3 131 8.7 101420 92
2001-11-29 08:53:43 51°21.055 2°58.31 6.6 132 8.7 101420 92
2001-11-29 08:53:48 51°21.073 2°58.3 7.7 125 8.7 101420 92
2001-11-29 08:53:53 51°21.089 2°58.288 6.6 133 8.7 101410 92
2001-11-29 08:53:57 51°21.103 2°58.279 5.5 127 8.7 101410 92
2001-11-29 08:54:03 51°21.123 2°58.266 5.8 119 8.7 101420 92
2001-11-29 08:54:07 51°21.137 2°58.257 1.9 133 8.7 101420 92
2001-11-29 08:54:13 51°21.158 2°58.244 4.7 120 8.7 101400 91
2001-11-29 08:54:17 51°21.171 2°58.235 2.7 128 8.7 101400 91
2001-11-29 08:54:23 51°21.192 2°58.222 2.6 127 8.7 101430 92
2001-11-29 08:54:27 51°21.206 2°58.213 2.6 116 8.7 101430 92
2001-11-29 08:54:33 51°21.226 2°58.2 0.8 104 8.7 101430 91
2001-11-29 08:54:37 51°21.24 2°58.19 7.5 130 8.7 101430 91
2001-11-29 08:54:41 51°21.254 2°58.182 5.7 120 8.7 101420 92
2001-11-29 08:54:47 51°21.275 2°58.169 1.8 129 8.7 101420 92
2001-11-29 08:54:53 51°21.296 2°58.156 2.3 122 8.7 101420 92
2001-11-29 08:54:58 51°21.312 2°58.143 5.6 128 8.7 101420 92
2001-11-29 08:55:03 51°21.329 2°58.133 3.7 122 8.7 101420 92
2001-11-29 08:55:08 51°21.346 2°58.121 4.7 123 8.7 101420 92
2001-11-29 08:55:13 51°21.363 2°58.11 5.1 129 8.7 101420 92
2001-11-29 08:55:17 51°21.377 2°58.101 4.1 129 8.7 101420 92
2001-11-29 08:55:23 51°21.397 2°58.087 5.8 127 8.7 101410 92
2001-11-29 08:55:27 51°21.411 2°58.079 2.4 131 8.7 101410 92
2001-11-29 08:55:33 51°21.431 2°58.066 5.3 123 8.7 101420 92
2001-11-29 08:55:37 51°21.444 2°58.058 4.5 124 8.7 101420 92
2001-11-29 08:55:43 51°21.465 2°58.045 5.9 125 8.7 101430 92
2001-11-29 08:55:48 51°21.482 2°58.035 3.9 106 8.7 101430 92
2001-11-29 08:55:53 51°21.499 2°58.025 4.3 135 8.7 101410 92
2001-11-29 08:55:57 51°21.512 2°58.015 2.6 109 8.7 101410 92
2001-11-29 08:56:03 51°21.533 2°58.003 4.4 108 8.7 101420 92
2001-11-29 08:56:08 51°21.55 2°57.992 6.6 135 8.7 101420 92
2001-11-29 08:56:13 51°21.567 2°57.981 6.3 124 8.7 101410 92
2001-11-29 08:56:18 51°21.584 2°57.969 6.3 107 8.7 101410 92
2001-11-29 08:56:23 51°21.6 2°57.956 6.1 130 8.7 101410 92
2001-11-29 08:56:27 51°21.614 2°57.946 5.3 117 8.7 101410 92
2001-11-29 08:56:33 51°21.634 2°57.93 5.3 121 8.7 101410 92
2001-11-29 08:56:37 51°21.647 2°57.921 6.7 139 8.7 101410 92
2001-11-29 08:56:43 51°21.668 2°57.908 5 130 8.7 101400 92
2001-11-29 08:56:48 51°21.685 2°57.897 5.3 121 8.7 101400 92
2001-11-29 08:56:53 51°21.702 2°57.886 3.1 139 8.7 101400 91
2001-11-29 08:56:58 51°21.719 2°57.875 4.7 131 8.7 101400 91
2001-11-29 08:57:03 51°21.736 2°57.866 3.9 135 8.7 101410 92
2001-11-29 08:57:08 51°21.754 2°57.856 7.3 126 8.7 101410 92
2001-11-29 08:57:13 51°21.771 2°57.847 5.5 130 8.7 101420 92
2001-11-29 08:57:17 51°21.786 2°57.84 2.4 109 8.7 101420 92
2001-11-29 08:57:23 51°21.807 2°57.828 3.9 143 8.7 101410 92
2001-11-29 08:57:28 51°21.825 2°57.819 4.8 130 8.7 101410 92
2001-11-29 08:57:33 51°21.843 2°57.809 4.2 136 8.7 101410 92
2001-11-29 08:57:37 51°21.857 2°57.803 3.9 130 8.7 101410 92
2001-11-29 08:57:43 51°21.878 2°57.791 3.7 120 8.7 101410 92
2001-11-29 08:57:47 51°21.893 2°57.784 7.5 122 8.7 101410 92
2001-11-29 08:57:53 51°21.914 2°57.772 5.1 126 8.7 101420 92
2001-11-29 08:57:57 51°21.928 2°57.766 6.4 150 8.7 101420 92
2001-11-29 08:58:03 51°21.949 2°57.754 6.2 131 8.7 101410 92
2001-11-29 08:58:08 51°21.966 2°57.746 4.4 132 8.7 101410 92
2001-11-29 08:58:13 51°21.984 2°57.735 5.4 126 8.7 101410 92
2001-11-29 08:58:17 51°21.997 2°57.727 4.1 116 8.7 101410 92
2001-11-29 08:58:23 51°22.018 2°57.715 4.2 140 8.7 101410 92
2001-11-29 08:58:27 51°22.032 2°57.707 6.3 132 8.7 101410 92
2001-11-29 08:58:33 51°22.053 2°57.695 6.8 132 8.7 101400 92
2001-11-29 08:58:38 51°22.071 2°57.686 3.1 130 8.7 101400 92
2001-11-29 08:58:43 51°22.088 2°57.675 9.5 132 8.7 101420 92
2001-11-29 08:58:48 51°22.105 2°57.668 6.8 130 8.7 101420 92
2001-11-29 08:58:53 51°22.123 2°57.657 7.9 123 8.7 101400 92
2001-11-29 08:58:58 51°22.141 2°57.65 4.6 140 8.7 101400 92
2001-11-29 08:59:03 51°22.158 2°57.637 8 124 8.7 101400 92
2001-11-29 08:59:08 51°22.175 2°57.628 4.9 133 8.7 101400 92
2001-11-29 08:59:13 51°22.192 2°57.616 2 109 8.7 101400 92
2001-11-29 08:59:17 51°22.206 2°57.61 3.6 127 8.7 101400 92
2001-11-29 08:59:21 51°22.221 2°57.602 4.5 122 8.7 101410 91
2001-11-29 08:59:28 51°22.245 2°57.589 4.2 127 8.7 101410 91
2001-11-29 08:59:33 51°22.262 2°57.578 4.1 107 8.7 101400 91
2001-11-29 08:59:37 51°22.277 2°57.572 6.7 119 8.7 101400 91
2001-11-29 08:59:43 51°22.298 2°57.56 7.1 132 8.7 101400 92
2001-11-29 08:59:48 51°22.316 2°57.553 5.9 134 8.7 101400 92
2001-11-29 08:59:53 51°22.334 2°57.541 3.2 143 8.7 101400 92
2001-11-29 08:59:57 51°22.348 2°57.535 6.2 121 8.7 101400 92
2001-11-29 09:00:03 51°22.368 2°57.523 5 125 8.7 101400 92
2001-11-29 09:00:08 51°22.386 2°57.514 4.7 129 8.7 101400 92
2001-11-29 09:00:13 51°22.404 2°57.506 5.8 138 8.7 101400 92
2001-11-29 09:00:17 51°22.418 2°57.497 3.6 112 8.7 101400 92
2001-11-29 09:00:23 51°22.439 2°57.486 7.6 127 8.7 101390 92
2001-11-29 09:00:27 51°22.453 2°57.479 6.4 128 8.7 101390 92
2001-11-29 09:00:33 51°22.474 2°57.465 4.9 134 8.7 101390 92
2001-11-29 09:00:37 51°22.488 2°57.458 3.5 102 8.7 101390 92
2001-11-29 09:00:41 51°22.501 2°57.448 6.2 145 8.7 101390 92
2001-11-29 09:00:48 51°22.526 2°57.435 8 138 8.7 101390 92
2001-11-29 09:00:53 51°22.543 2°57.422 4.5 148 8.7 101380 92
2001-11-29 09:00:57 51°22.558 2°57.416 5.5 138 8.7 101380 92
2001-11-29 09:01:03 51°22.577 2°57.401 7 129 8.7 101380 92
2001-11-29 09:01:08 51°22.595 2°57.391 3.1 120 8.7 101380 92
2001-11-29 09:01:13 51°22.611 2°57.378 5.2 115 8.7 101380 92
2001-11-29 09:01:18 51°22.629 2°57.369 6.1 135 8.7 101380 92
2001-11-29 09:01:23 51°22.646 2°57.358 4.9 129 8.7 101390 92
2001-11-29 09:01:28 51°22.663 2°57.349 5.9 137 8.7 101390 92
2001-11-29 09:01:33 51°22.68 2°57.337 3.5 122 8.7 101380 92
2001-11-29 09:01:37 51°22.695 2°57.33 6.1 129 8.7 101380 92
2001-11-29 09:01:41 51°22.708 2°57.32 5.4 150 8.7 101390 92
2001-11-29 09:01:48 51°22.733 2°57.308 2.9 130 8.7 101390 92
2001-11-29 09:01:53 51°22.75 2°57.296 8.1 131 8.7 101390 92
2001-11-29 09:01:58 51°22.768 2°57.287 5 129 8.7 101390 92
2001-11-29 09:02:03 51°22.785 2°57.275 6.2 149 8.7 101380 92
2001-11-29 09:02:08 51°22.804 2°57.267 4.6 119 8.7 101380 92
2001-11-29 09:02:13 51°22.821 2°57.255 7.7 119 8.7 101390 92
2001-11-29 09:02:17 51°22.835 2°57.249 4.1 118 8.7 101390 92
2001-11-29 09:02:23 51°22.856 2°57.234 4 120 8.7 101380 92
2001-11-29 09:02:28 51°22.874 2°57.226 6.5 137 8.7 101380 92
2001-11-29 09:02:33 51°22.891 2°57.214 7.3 127 8.7 101380 92
2001-11-29 09:02:38 51°22.908 2°57.205 5 142 8.7 101380 92
2001-11-29 09:02:43 51°22.926 2°57.194 6.2 128 8.7 101380 92
2001-11-29 09:02:47 51°22.94 2°57.186 4.7 123 8.7 101380 92
2001-11-29 09:02:53 51°22.961 2°57.173 3 140 8.7 101380 92
2001-11-29 09:02:57 51°22.975 2°57.166 6.5 133 8.7 101380 92
2001-11-29 09:03:03 51°22.996 2°57.153 6.7 127 8.7 101390 92
2001-11-29 09:03:08 51°23.014 2°57.145 5.7 146 8.7 101390 92
2001-11-29 09:03:13 51°23.031 2°57.134 6.1 133 8.7 101390 92
2001-11-29 09:03:18 51°23.048 2°57.125 7.7 140 8.7 101390 92
2001-11-29 09:03:23 51°23.066 2°57.117 7.4 138 8.7 101380 92
2001-11-29 09:03:28 51°23.083 2°57.106 6 135 8.7 101380 92
2001-11-29 09:03:33 51°23.101 2°57.097 5.6 113 8.7 101360 92
2001-11-29 09:03:37 51°23.115 2°57.088 4.1 141 8.7 101360 92
2001-11-29 09:03:43 51°23.136 2°57.076 6.7 119 8.7 101380 92
2001-11-29 09:03:48 51°23.153 2°57.065 5.6 128 8.7 101380 92
2001-11-29 09:03:53 51°23.17 2°57.054 5.6 125 8.7 101360 92
2001-11-29 09:03:58 51°23.187 2°57.042 6.5 117 8.7 101360 92
2001-11-29 09:04:02 51°23.2 2°57.034 4.5 135 8.7 101390 92
2001-11-29 09:04:08 51°23.221 2°57.021 9.1 128 8.7 101390 92
2001-11-29 09:04:13 51°23.238 2°57.01 4.9 113 8.7 101380 92
2001-11-29 09:04:17 51°23.252 2°57.002 1.6 98 8.7 101380 92
2001-11-29 09:04:23 51°23.272 2°56.985 6.1 124 8.7 101370 92
2001-11-29 09:04:28 51°23.289 2°56.974 4.6 123 8.7 101370 92
2001-11-29 09:04:33 51°23.305 2°56.958 5.3 120 8.7 101370 92
2001-11-29 09:04:37 51°23.319 2°56.951 6.6 125 8.7 101370 92
2001-11-29 09:04:42 51°23.336 2°56.937 6 138 8.7 101370 92
2001-11-29 09:04:48 51°23.356 2°56.923 7.3 123 8.7 101370 92
2001-11-29 09:04:53 51°23.373 2°56.911 5.5 118 8.7 101380 92
2001-11-29 09:04:58 51°23.39 2°56.901 4.8 129 8.7 101380 92
2001-11-29 09:05:03 51°23.406 2°56.889 2.9 123 8.7 101380 92
2001-11-29 09:05:08 51°23.424 2°56.88 6.5 115 8.7 101380 92
2001-11-29 09:05:13 51°23.441 2°56.868 3.6 118 8.7 101370 92
2001-11-29 09:05:17 51°23.454 2°56.861 4.9 130 8.7 101370 92
2001-11-29 09:05:23 51°23.475 2°56.848 2.7 139 8.7 101390 92
2001-11-29 09:05:28 51°23.492 2°56.838 7.7 132 8.7 101390 92
2001-11-29 09:05:33 51°23.509 2°56.826 7.2 124 8.7 101380 92
2001-11-29 09:05:38 51°23.526 2°56.814 5.8 128 8.7 101380 92
2001-11-29 09:05:43 51°23.543 2°56.804 5.3 126 8.7 101390 92
2001-11-29 09:05:47 51°23.556 2°56.793 4.7 121 8.7 101390 92
2001-11-29 09:05:53 51°23.576 2°56.78 5.3 139 8.7 101370 92
2001-11-29 09:05:57 51°23.589 2°56.769 1.2 165 8.7 101370 92
2001-11-29 09:06:03 51°23.608 2°56.752 2 150 8.7 101370 92
2001-11-29 09:06:08 51°23.625 2°56.738 0.9 114 8.7 101370 92
2001-11-29 09:06:13 51°23.64 2°56.723 4.7 120 8.7 101370 92
2001-11-29 09:06:17 51°23.653 2°56.714 5.6 124 8.7 101370 92
2001-11-29 09:06:21 51°23.666 2°56.701 5.1 127 8.7 101370 92
2001-11-29 09:06:28 51°23.689 2°56.683 1.9 124 8.7 101370 92
2001-11-29 09:06:33 51°23.705 2°56.67 4.9 112 8.7 101360 92
2001-11-29 09:06:37 51°23.718 2°56.661 4.7 147 8.7 101360 92
2001-11-29 09:06:43 51°23.738 2°56.646 4.7 144 8.7 101370 92
2001-11-29 09:06:48 51°23.754 2°56.634 8.1 129 8.7 101370 92
2001-11-29 09:06:53 51°23.77 2°56.621 4.4 145 8.7 101370 92
2001-11-29 09:06:57 51°23.784 2°56.613 2.5 136 8.7 101370 92
2001-11-29 09:07:03 51°23.803 2°56.596 3.1 114 8.7 101360 92
2001-11-29 09:07:08 51°23.819 2°56.585 5.7 119 8.7 101360 92
2001-11-29 09:07:13 51°23.835 2°56.571 5.6 111 8.7 101370 92
2001-11-29 09:07:17 51°23.848 2°56.562 5.1 127 8.7 101370 92
2001-11-29 09:07:23 51°23.867 2°56.546 6.5 119 8.7 101370 92
2001-11-29 09:07:28 51°23.884 2°56.535 4.2 122 8.7 101370 92
2001-11-29 09:07:33 51°23.9 2°56.521 3.9 116 8.7 101370 92
2001-11-29 09:07:37 51°23.913 2°56.512 4.4 134 8.7 101370 92
2001-11-29 09:07:43 51°23.933 2°56.498 3.6 129 8.7 101370 92
2001-11-29 09:07:48 51°23.95 2°56.486 1.9 139 8.7 101370 92
2001-11-29 09:07:53 51°23.966 2°56.474 4.8 118 8.7 101360 92
2001-11-29 09:07:58 51°23.983 2°56.463 6.1 137 8.7 101360 92
2001-11-29 09:08:03 51°24 2°56.451 7.3 143 8.7 101370 92
2001-11-29 09:08:08 51°24.016 2°56.44 4.1 135 8.7 101370 92
2001-11-29 09:08:13 51°24.033 2°56.428 4.9 101 8.8 101370 92
2001-11-29 09:08:17 51°24.045 2°56.418 4 133 8.8 101370 92
2001-11-29 09:08:21 51°24.059 2°56.41 1.3 112 8.7 101370 92
2001-11-29 09:08:28 51°24.08 2°56.39 4.1 142 8.7 101370 92
2001-11-29 09:08:33 51°24.097 2°56.379 5.7 105 8.8 101370 92
2001-11-29 09:08:37 51°24.109 2°56.366 4.1 119 8.8 101370 92
2001-11-29 09:08:42 51°24.126 2°56.356 1.8 112 8.7 101360 92
2001-11-29 09:08:48 51°24.145 2°56.339 6.4 130 8.7 101360 92
2001-11-29 09:08:53 51°24.161 2°56.329 5.4 131 8.8 101370 92
2001-11-29 09:08:58 51°24.177 2°56.315 4.5 121 8.8 101370 92
2001-11-29 09:09:03 51°24.195 2°56.305 6.6 125 8.7 101360 92
2001-11-29 09:09:08 51°24.21 2°56.291 1.9 96 8.7 101360 92
2001-11-29 09:09:12 51°24.224 2°56.283 3.2 120 8.8 101360 92
2001-11-29 09:09:18 51°24.243 2°56.266 2.3 92 8.8 101360 92
2001-11-29 09:09:23 51°24.259 2°56.254 4 110 8.8 101370 92
2001-11-29 09:09:28 51°24.276 2°56.243 7.2 129 8.8 101370 92
2001-11-29 09:09:33 51°24.292 2°56.23 3.5 116 8.8 101360 92
2001-11-29 09:09:37 51°24.305 2°56.22 2.7 103 8.8 101360 92
2001-11-29 09:09:43 51°24.326 2°56.205 3.2 130 8.8 101350 92
2001-11-29 09:09:48 51°24.342 2°56.194 5.8 128 8.8 101350 92
2001-11-29 09:09:52 51°24.356 2°56.185 5.2 134 8.8 101350 92
2001-11-29 09:09:57 51°24.373 2°56.172 3.2 137 8.8 101350 92
2001-11-29 09:10:03 51°24.394 2°56.16 4.1 131 8.8 101360 92
2001-11-29 09:10:08 51°24.411 2°56.148 7.1 125 8.8 101360 92
2001-11-29 09:10:13 51°24.429 2°56.136 5.3 128 8.8 101360 92
2001-11-29 09:10:17 51°24.442 2°56.126 4.5 120 8.8 101360 92
2001-11-29 09:10:22 51°24.459 2°56.115 5.6 121 8.7 101370 92
2001-11-29 09:10:28 51°24.48 2°56.101 2.1 131 8.7 101370 92
2001-11-29 09:10:33 51°24.497 2°56.089 4.8 123 8.7 101350 92
2001-11-29 09:10:37 51°24.511 2°56.081 5.2 128 8.7 101350 92
2001-11-29 09:10:43 51°24.531 2°56.068 5 147 8.7 101360 92
2001-11-29 09:10:48 51°24.548 2°56.056 6 134 8.7 101360 92
2001-11-29 09:10:53 51°24.565 2°56.044 1.9 118 8.7 101360 92
2001-11-29 09:10:57 51°24.579 2°56.036 7.4 132 8.7 101360 92
2001-11-29 09:11:03 51°24.599 2°56.02 4.2 132 8.7 101350 92
2001-11-29 09:11:07 51°24.613 2°56.012 1.9 118 8.7 101350 92
2001-11-29 09:11:13 51°24.633 2°55.995 2.5 123 8.8 101360 92
2001-11-29 09:11:17 51°24.647 2°55.987 7.6 127 8.8 101360 92
2001-11-29 09:11:23 51°24.667 2°55.97 5.5 105 8.8 101350 92
2001-11-29 09:11:28 51°24.684 2°55.959 2.1 127 8.8 101350 92
2001-11-29 09:11:32 51°24.697 2°55.946 1.2 103 8.7 101350 92
2001-11-29 09:11:37 51°24.714 2°55.935 3.2 133 8.7 101350 92
2001-11-29 09:11:42 51°24.731 2°55.922 3 111 8.8 101350 92
2001-11-29 09:11:48 51°24.751 2°55.908 4.7 131 8.8 101350 92
2001-11-29 09:11:53 51°24.768 2°55.895 5 120 8.8 101340 92
2001-11-29 09:11:57 51°24.781 2°55.886 5.6 133 8.8 101340 92
2001-11-29 09:12:03 51°24.802 2°55.872 4 99 8.8 101350 92
2001-11-29 09:12:07 51°24.816 2°55.862 3.5 115 8.8 101350 92
2001-11-29 09:12:13 51°24.836 2°55.848 6.3 133 8.8 101340 92
2001-11-29 09:12:17 51°24.849 2°55.838 2.7 109 8.8 101340 92
2001-11-29 09:12:23 51°24.87 2°55.823 6.9 122 8.8 101340 92
2001-11-29 09:12:28 51°24.886 2°55.811 5.1 137 8.8 101340 92
2001-11-29 09:12:33 51°24.904 2°55.799 4.5 115 8.8 101350 92
2001-11-29 09:12:37 51°24.917 2°55.787 1.1 104 8.8 101350 92
2001-11-29 09:12:42 51°24.934 2°55.776 1.9 123 8.8 101360 92
2001-11-29 09:12:48 51°24.954 2°55.759 5.8 128 8.8 101360 92
2001-11-29 09:12:53 51°24.97 2°55.748 5.6 126 8.8 101350 92
2001-11-29 09:12:57 51°24.984 2°55.737 4.2 122 8.8 101350 92
2001-11-29 09:13:02 51°25.001 2°55.724 4.3 116 8.8 101360 92
2001-11-29 09:13:08 51°25.021 2°55.711 4.6 131 8.8 101360 92
2001-11-29 09:13:13 51°25.038 2°55.697 8.2 112 8.8 101350 92
2001-11-29 09:13:17 51°25.051 2°55.689 3.8 142 8.8 101350 92
2001-11-29 09:13:22 51°25.068 2°55.678 1.8 137 8.8 101350 92
2001-11-29 09:13:28 51°25.088 2°55.663 1.9 116 8.8 101350 92
2001-11-29 09:13:33 51°25.106 2°55.653 2.4 123 8.8 101360 92
2001-11-29 09:13:37 51°25.119 2°55.642 5.2 122 8.8 101360 92
2001-11-29 09:13:43 51°25.139 2°55.63 1.8 109 8.8 101360 92
2001-11-29 09:13:48 51°25.156 2°55.618 2.8 121 8.8 101360 92
2001-11-29 09:13:53 51°25.173 2°55.608 1.8 94 8.8 101360 92
2001-11-29 09:13:57 51°25.186 2°55.599 5.1 142 8.8 101360 92
2001-11-29 09:14:01 51°25.199 2°55.59 4.6 121 8.8 101360 92
2001-11-29 09:14:08 51°25.223 2°55.575 5.5 131 8.8 101360 92
2001-11-29 09:14:13 51°25.24 2°55.565 7.1 124 8.8 101340 92
2001-11-29 09:14:17 51°25.253 2°55.557 4.1 133 8.8 101340 92
2001-11-29 09:14:23 51°25.273 2°55.543 3.7 133 8.8 101330 92
2001-11-29 09:14:28 51°25.29 2°55.533 0.8 138 8.8 101330 92
2001-11-29 09:14:33 51°25.307 2°55.522 4.8 118 8.8 101350 92
2001-11-29 09:14:37 51°25.32 2°55.513 6 129 8.8 101350 92
2001-11-29 09:14:43 51°25.34 2°55.501 5.2 131 8.8 101350 92
2001-11-29 09:14:48 51°25.356 2°55.488 5.6 123 8.8 101350 92
2001-11-29 09:14:53 51°25.373 2°55.479 2.4 143 8.8 101350 92
2001-11-29 09:14:57 51°25.387 2°55.47 4.8 135 8.8 101350 92
2001-11-29 09:15:02 51°25.403 2°55.459 4.1 124 8.8 101350 92
2001-11-29 09:15:08 51°25.423 2°55.446 2 148 8.8 101350 92
2001-11-29 09:15:13 51°25.439 2°55.432 5.5 127 8.8 101350 92
2001-11-29 09:15:17 51°25.453 2°55.424 4.1 104 8.8 101350 92
2001-11-29 09:15:21 51°25.466 2°55.413 3.5 119 8.8 101340 92
2001-11-29 09:15:28 51°25.489 2°55.396 2.7 110 8.8 101340 92
2001-11-29 09:15:33 51°25.505 2°55.382 3.6 125 8.8 101350 92
2001-11-29 09:15:37 51°25.519 2°55.375 5.9 123 8.8 101350 92
2001-11-29 09:15:42 51°25.535 2°55.359 6.7 133 8.8 101350 92
2001-11-29 09:15:48 51°25.555 2°55.347 3.9 120 8.8 101350 92
2001-11-29 09:15:53 51°25.57 2°55.333 4.4 141 8.9 101350 92
2001-11-29 09:15:58 51°25.587 2°55.323 3 103 8.9 101350 92
2001-11-29 09:16:03 51°25.603 2°55.308 6.1 137 8.8 101340 92
2001-11-29 09:16:08 51°25.62 2°55.299 3.6 119 8.8 101340 92
2001-11-29 09:16:13 51°25.636 2°55.285 7.8 128 8.9 101340 92
2001-11-29 09:16:17 51°25.649 2°55.277 2.1 114 8.9 101340 92
2001-11-29 09:16:23 51°25.669 2°55.262 4.1 123 8.8 101350 92
2001-11-29 09:16:28 51°25.686 2°55.253 5 140 8.8 101350 92
2001-11-29 09:16:33 51°25.703 2°55.241 7.1 134 8.9 101340 92
2001-11-29 09:16:38 51°25.72 2°55.23 5.7 130 8.9 101340 92
2001-11-29 09:16:43 51°25.737 2°55.219 7.4 138 8.9 101340 92
2001-11-29 09:16:47 51°25.75 2°55.209 4 142 8.9 101340 92
2001-11-29 09:16:53 51°25.771 2°55.197 0.5 127 8.9 101340 92
2001-11-29 09:16:57 51°25.784 2°55.187 5.5 145 8.9 101340 92
2001-11-29 09:17:03 51°25.805 2°55.176 7.3 133 8.9 101350 92
2001-11-29 09:17:07 51°25.818 2°55.165 5.1 146 8.9 101350 92
2001-11-29 09:17:13 51°25.839 2°55.156 3.8 127 8.9 101360 92
2001-11-29 09:17:17 51°25.853 2°55.147 2.8 123 8.9 101360 92
2001-11-29 09:17:23 51°25.873 2°55.135 3.4 127 8.9 101350 92
2001-11-29 09:17:27 51°25.887 2°55.125 7.4 134 8.9 101350 92
2001-11-29 09:17:33 51°25.907 2°55.113 5.5 123 8.9 101360 92
2001-11-29 09:17:37 51°25.921 2°55.103 2.6 117 8.9 101360 92
2001-11-29 09:17:43 51°25.941 2°55.089 2.5 112 8.9 101330 92
2001-11-29 09:17:48 51°25.958 2°55.078 5.7 132 8.9 101330 92
2001-11-29 09:17:53 51°25.975 2°55.066 3.8 131 8.9 101340 92
2001-11-29 09:17:57 51°25.989 2°55.057 4.3 120 8.9 101340 92
2001-11-29 09:18:03 51°26.009 2°55.044 4.5 132 8.9 101340 92
2001-11-29 09:18:08 51°26.025 2°55.03 3.2 138 8.9 101340 92
2001-11-29 09:18:13 51°26.043 2°55.02 5.6 123 8.9 101350 92
2001-11-29 09:18:17 51°26.056 2°55.01 3.7 128 8.9 101350 92
2001-11-29 09:18:23 51°26.076 2°54.997 6.9 139 8.9 101340 92
2001-11-29 09:18:28 51°26.092 2°54.985 2.7 123 8.9 101340 92
2001-11-29 09:18:32 51°26.106 2°54.975 3.7 142 8.9 101350 92
2001-11-29 09:18:37 51°26.123 2°54.965 2.2 145 8.9 101350 92
2001-11-29 09:18:43 51°26.143 2°54.951 6 139 8.9 101350 92
2001-11-29 09:18:48 51°26.16 2°54.938 5.4 140 8.9 101350 92
2001-11-29 09:18:53 51°26.178 2°54.929 3.7 118 8.9 101340 92
2001-11-29 09:18:57 51°26.191 2°54.917 6.3 122 8.9 101340 92
2001-11-29 09:19:01 51°26.205 2°54.909 6.9 134 8.9 101340 92
2001-11-29 09:19:08 51°26.229 2°54.892 3.9 128 8.9 101340 92
2001-11-29 09:19:13 51°26.246 2°54.881 2 121 8.9 101340 92
2001-11-29 09:19:17 51°26.259 2°54.869 4.5 135 8.9 101340 92
2001-11-29 09:19:23 51°26.28 2°54.856 6.7 130 8.9 101330 92
2001-11-29 09:19:28 51°26.297 2°54.846 6.5 107 8.9 101330 92
2001-11-29 09:19:33 51°26.314 2°54.832 8.9 134 9 101350 92
2001-11-29 09:19:37 51°26.328 2°54.823 5.3 128 9 101350 92
2001-11-29 09:19:43 51°26.348 2°54.809 7.1 135 9 101340 92
2001-11-29 09:19:48 51°26.365 2°54.8 6.5 143 9 101340 92
2001-11-29 09:19:53 51°26.382 2°54.788 5.6 118 8.9 101330 92
2001-11-29 09:19:57 51°26.396 2°54.781 5.3 135 8.9 101330 92
2001-11-29 09:20:01 51°26.41 2°54.773 6.3 127 8.9 101340 92
2001-11-29 09:20:08 51°26.435 2°54.758 6.5 140 8.9 101340 92
2001-11-29 09:20:13 51°26.452 2°54.749 5.2 136 8.9 101330 92
2001-11-29 09:20:17 51°26.467 2°54.741 3 133 8.9 101330 92
2001-11-29 09:20:22 51°26.484 2°54.729 5.3 132 9 101330 92
2001-11-29 09:20:28 51°26.505 2°54.72 8.4 131 9 101330 92
2001-11-29 09:20:33 51°26.522 2°54.707 7.9 126 8.9 101330 92
2001-11-29 09:20:38 51°26.54 2°54.7 4.7 149 8.9 101330 92
2001-11-29 09:20:43 51°26.557 2°54.687 5.8 119 9 101340 92
2001-11-29 09:20:47 51°26.571 2°54.68 3.7 121 9 101340 92
2001-11-29 09:20:53 51°26.592 2°54.666 5.3 111 9 101330 92
2001-11-29 09:20:57 51°26.606 2°54.659 5.5 130 9 101330 92
2001-11-29 09:21:03 51°26.627 2°54.645 5.4 135 9 101320 92
2001-11-29 09:21:08 51°26.645 2°54.637 5.5 128 9 101320 92
2001-11-29 09:21:13 51°26.663 2°54.624 4.2 131 9 101330 92
2001-11-29 09:21:17 51°26.677 2°54.617 4 125 9 101330 92
2001-11-29 09:21:23 51°26.697 2°54.602 2.5 114 9 101320 92
2001-11-29 09:21:28 51°26.715 2°54.594 6.7 132 9 101320 92
2001-11-29 09:21:33 51°26.732 2°54.58 4.2 115 9 101330 92
2001-11-29 09:21:37 51°26.746 2°54.571 4.8 127 9 101330 92
2001-11-29 09:21:43 51°26.767 2°54.558 3.4 142 9 101330 92
2001-11-29 09:21:48 51°26.784 2°54.546 3.5 122 9 101330 92
2001-11-29 09:21:53 51°26.802 2°54.536 4.8 128 9 101320 92
2001-11-29 09:21:57 51°26.815 2°54.523 6.6 138 9 101320 92
2001-11-29 09:22:03 51°26.837 2°54.511 8.4 130 9 101320 92
2001-11-29 09:22:07 51°26.85 2°54.5 4.2 132 9 101320 92
2001-11-29 09:22:13 51°26.871 2°54.487 4.2 149 9 101330 92
2001-11-29 09:22:18 51°26.889 2°54.476 4.5 149 9 101330 92
2001-11-29 09:22:23 51°26.906 2°54.465 2.9 120 9 101330 92
2001-11-29 09:22:28 51°26.924 2°54.455 8.5 125 9 101330 92
2001-11-29 09:22:33 51°26.941 2°54.445 5.5 129 9 101320 92
2001-11-29 09:22:37 51°26.956 2°54.438 7.8 133 9 101320 92
2001-11-29 09:22:43 51°26.976 2°54.424 4.7 127 9 101320 92
2001-11-29 09:22:48 51°26.994 2°54.415 4 132 9 101320 92
2001-11-29 09:22:53 51°27.012 2°54.403 3.7 133 9 101310 92
2001-11-29 09:22:58 51°27.03 2°54.393 7.1 133 9 101310 92
2001-11-29 09:23:03 51°27.047 2°54.382 4.1 146 9 101320 92
2001-11-29 09:23:07 51°27.062 2°54.375 3.6 118 9 101320 92
2001-11-29 09:23:13 51°27.082 2°54.361 3.1 125 9 101340 92
2001-11-29 09:23:17 51°27.097 2°54.354 7.8 133 9 101340 92
2001-11-29 09:23:23 51°27.117 2°54.338 4.5 130 9 101320 92
2001-11-29 09:23:27 51°27.132 2°54.331 5.1 131 9 101320 92
2001-11-29 09:23:33 51°27.152 2°54.314 1.4 99 9 101320 92
2001-11-29 09:23:38 51°27.169 2°54.304 4.8 134 9 101320 92
2001-11-29 09:23:43 51°27.186 2°54.29 4.6 122 9 101310 92
2001-11-29 09:23:47 51°27.2 2°54.282 4.7 147 9 101310 92
2001-11-29 09:23:53 51°27.221 2°54.267 1.8 106 9 101310 92
2001-11-29 09:23:58 51°27.238 2°54.256 2.9 82 9 101310 92
2001-11-29 09:24:03 51°27.255 2°54.243 3.2 125 9 101330 92
2001-11-29 09:24:08 51°27.272 2°54.23 5.6 121 9 101330 92
2001-11-29 09:24:13 51°27.289 2°54.216 3.8 135 9 101330 92
2001-11-29 09:24:17 51°27.302 2°54.205 1.9 100 9 101330 92
2001-11-29 09:24:23 51°27.322 2°54.188 0.4 109 9 101330 92
2001-11-29 09:24:28 51°27.338 2°54.175 1.5 116 9 101330 92
2001-11-29 09:24:33 51°27.354 2°54.16 7.8 122 9 101320 92
2001-11-29 09:24:38 51°27.371 2°54.146 4.7 135 9 101320 92
2001-11-29 09:24:43 51°27.387 2°54.133 2.4 145 9 101310 92
2001-11-29 09:24:48 51°27.404 2°54.12 3.6 122 9 101310 92
2001-11-29 09:24:53 51°27.421 2°54.107 2.4 119 9 101310 92
2001-11-29 09:24:57 51°27.433 2°54.095 3.6 107 9 101310 92
2001-11-29 09:25:03 51°27.453 2°54.078 3 140 9 101320 92
2001-11-29 09:25:08 51°27.468 2°54.063 2 94 9 101320 92
2001-11-29 09:25:13 51°27.485 2°54.051 6.2 124 9 101300 92
2001-11-29 09:25:18 51°27.501 2°54.036 3.9 113 9 101300 92
2001-11-29 09:25:23 51°27.518 2°54.022 2.8 124 9 101310 92
2001-11-29 09:25:28 51°27.535 2°54.009 2.8 134 9 101310 92
2001-11-29 09:25:33 51°27.551 2°53.994 6.6 121 9 101310 92
2001-11-29 09:25:38 51°27.568 2°53.982 1.8 141 9 101310 92
2001-11-29 09:25:43 51°27.584 2°53.969 1.8 105 9 101310 92
2001-11-29 09:25:48 51°27.601 2°53.958 5.5 128 9 101310 92
2001-11-29 09:25:53 51°27.618 2°53.945 3.6 130 9 101320 92
2001-11-29 09:25:57 51°27.63 2°53.934 6.2 132 9 101320 92
2001-11-29 09:26:02 51°27.647 2°53.922 4 124 9 101330 92
2001-11-29 09:26:08 51°27.667 2°53.908 6.9 139 9 101330 92
2001-11-29 09:26:13 51°27.683 2°53.895 4.9 145 9 101310 92
2001-11-29 09:26:17 51°27.697 2°53.886 1.8 119 9 101310 92
2001-11-29 09:26:23 51°27.716 2°53.871 5.8 121 9 101310 92
2001-11-29 09:26:28 51°27.733 2°53.86 1.5 122 9 101310 92
2001-11-29 09:26:33 51°27.749 2°53.847 3.6 119 9.1 101310 92
2001-11-29 09:26:37 51°27.761 2°53.835 3.4 150 9.1 101310 92
2001-11-29 09:26:42 51°27.779 2°53.825 2.5 163 9.1 101310 92
2001-11-29 09:26:48 51°27.796 2°53.805 2.7 109 9.1 101310 92
2001-11-29 09:26:53 51°27.812 2°53.791 6.5 131 9.1 101310 92
2001-11-29 09:26:58 51°27.827 2°53.775 5.9 145 9.1 101310 92
2001-11-29 09:27:03 51°27.843 2°53.762 6.1 131 9.1 101310 92
2001-11-29 09:27:08 51°27.859 2°53.746 3 116 9.1 101310 92
2001-11-29 09:27:13 51°27.874 2°53.731 7.5 126 9.1 101310 92
2001-11-29 09:27:17 51°27.887 2°53.72 4.5 144 9.1 101310 92
2001-11-29 09:27:21 51°27.9 2°53.707 5.6 132 9.1 101290 92
2001-11-29 09:27:28 51°27.923 2°53.688 4 129 9.1 101290 92
2001-11-29 09:27:33 51°27.939 2°53.675 3.1 117 9.1 101300 92
2001-11-29 09:27:37 51°27.954 2°53.668 7 118 9.1 101300 92
2001-11-29 09:27:43 51°27.974 2°53.652 2.2 156 9.1 101290 92
2001-11-29 09:27:47 51°27.987 2°53.641 6.9 134 9.1 101290 92
2001-11-29 09:27:53 51°28.007 2°53.628 1.5 131 9.1 101300 92
2001-11-29 09:27:57 51°28.02 2°53.617 4.7 135 9.1 101300 92
2001-11-29 09:28:03 51°28.041 2°53.605 6.3 120 9.1 101300 92
2001-11-29 09:28:08 51°28.057 2°53.592 5.8 131 9.1 101300 92
2001-11-29 09:28:13 51°28.074 2°53.582 8.8 129 9.1 101310 92
2001-11-29 09:28:18 51°28.09 2°53.567 4.9 128 9.1 101310 92
2001-11-29 09:28:23 51°28.107 2°53.556 4.9 139 9.1 101300 92
2001-11-29 09:28:28 51°28.124 2°53.544 6.5 130 9.1 101300 92
2001-11-29 09:28:33 51°28.14 2°53.531 2.4 138 9.1 101300 92
2001-11-29 09:28:38 51°28.157 2°53.518 6.1 124 9.1 101300 92
2001-11-29 09:28:43 51°28.172 2°53.504 5.5 129 9.1 101300 92
2001-11-29 09:28:48 51°28.189 2°53.492 6 114 9.1 101300 92
2001-11-29 09:28:53 51°28.205 2°53.479 2.7 141 9.1 101300 92
2001-11-29 09:28:57 51°28.218 2°53.468 6 128 9.1 101300 92
2001-11-29 09:29:03 51°28.237 2°53.45 6.7 142 9.1 101300 92
2001-11-29 09:29:08 51°28.254 2°53.438 2.4 116 9.1 101300 92
2001-11-29 09:29:13 51°28.27 2°53.423 1.9 143 9.1 101290 92
2001-11-29 09:29:17 51°28.283 2°53.414 7.2 119 9.1 101290 92
2001-11-29 09:29:23 51°28.303 2°53.398 7.7 139 9.1 101300 92
2001-11-29 09:29:28 51°28.32 2°53.385 4.9 114 9.1 101300 92
2001-11-29 09:29:33 51°28.337 2°53.372 1.6 96 9.1 101300 92
2001-11-29 09:29:37 51°28.349 2°53.359 3 127 9.1 101300 92
2001-11-29 09:29:43 51°28.369 2°53.344 5 106 9.1 101290 92
2001-11-29 09:29:48 51°28.385 2°53.328 4.7 108 9.1 101290 92
2001-11-29 09:29:53 51°28.401 2°53.315 4.1 113 9.1 101290 92
2001-11-29 09:29:58 51°28.418 2°53.3 6.2 120 9.1 101290 92
2001-11-29 09:30:03 51°28.434 2°53.286 8.9 125 9.1 101300 92
2001-11-29 09:30:08 51°28.45 2°53.272 5.9 147 9.1 101300 92
2001-11-29 09:30:13 51°28.467 2°53.259 6.4 128 9.1 101290 92
2001-11-29 09:30:18 51°28.483 2°53.245 6.8 134 9.1 101290 92
2001-11-29 09:30:23 51°28.5 2°53.234 3.3 131 9.1 101300 92
2001-11-29 09:30:28 51°28.516 2°53.219 3.3 101 9.1 101300 92
2001-11-29 09:30:33 51°28.533 2°53.209 4.5 111 9.1 101290 92
2001-11-29 09:30:38 51°28.55 2°53.196 6.2 132 9.1 101290 92
2001-11-29 09:30:43 51°28.566 2°53.184 6.6 139 9.1 101310 92
2001-11-29 09:30:48 51°28.583 2°53.171 5.2 139 9.1 101310 92
2001-11-29 09:30:53 51°28.599 2°53.159 3.2 109 9.1 101280 92
2001-11-29 09:30:57 51°28.613 2°53.152 2.9 101 9.1 101280 92
2001-11-29 09:31:03 51°28.632 2°53.133 4 125 9.1 101280 92
2001-11-29 09:31:08 51°28.649 2°53.123 3.3 123 9.1 101280 92
2001-11-29 09:31:13 51°28.665 2°53.107 8.7 125 9.1 101290 92
2001-11-29 09:31:17 51°28.678 2°53.097 5.4 129 9.1 101290 92
2001-11-29 09:31:23 51°28.698 2°53.082 5.9 120 9.1 101280 92
2001-11-29 09:31:28 51°28.714 2°53.069 8.3 128 9.1 101280 92
2001-11-29 09:31:33 51°28.731 2°53.057 3.4 140 9.1 101290 92
2001-11-29 09:31:38 51°28.746 2°53.042 4.6 135 9.1 101290 92
2001-11-29 09:31:43 51°28.764 2°53.031 3.1 106 9.1 101300 92
2001-11-29 09:31:48 51°28.779 2°53.015 2 130 9.1 101300 92
2001-11-29 09:31:53 51°28.796 2°53.005 3.3 196 9.1 101290 92
2001-11-29 09:31:58 51°28.811 2°52.988 4.3 109 9.1 101290 92
2001-11-29 09:32:03 51°28.828 2°52.976 1.9 133 9.1 101290 92
2001-11-29 09:32:08 51°28.843 2°52.959 3.4 124 9.1 101290 92
2001-11-29 09:32:13 51°28.859 2°52.945 1.3 101 9.1 101300 92
2001-11-29 09:32:17 51°28.872 2°52.933 6.3 137 9.1 101300 92
2001-11-29 09:32:23 51°28.892 2°52.917 5.8 119 9.1 101290 92
2001-11-29 09:32:27 51°28.904 2°52.906 2.8 119 9.1 101290 92
2001-11-29 09:32:33 51°28.924 2°52.89 6.8 133 9.1 101300 92
2001-11-29 09:32:38 51°28.94 2°52.877 2.6 92 9.1 101300 92
2001-11-29 09:32:43 51°28.957 2°52.864 6.5 126 9.1 101300 92
2001-11-29 09:32:48 51°28.973 2°52.852 4 119 9.1 101300 92
2001-11-29 09:32:53 51°28.99 2°52.839 5.4 121 9.1 101290 92
2001-11-29 09:32:57 51°29.004 2°52.83 2 156 9.1 101290 92
2001-11-29 09:33:03 51°29.024 2°52.814 8.2 130 9.1 101290 92
2001-11-29 09:33:07 51°29.037 2°52.803 2.2 140 9.1 101290 92
2001-11-29 09:33:13 51°29.056 2°52.787 6.9 131 9.1 101290 92
2001-11-29 09:33:18 51°29.073 2°52.775 3.9 113 9.1 101290 92
2001-11-29 09:33:23 51°29.089 2°52.761 2.3 102 9.1 101290 92
2001-11-29 09:33:28 51°29.106 2°52.748 2.3 126 9.1 101290 92
2001-11-29 09:33:33 51°29.122 2°52.736 6.2 129 9.1 101300 92
2001-11-29 09:33:37 51°29.135 2°52.724 1.7 119 9.1 101300 92
2001-11-29 09:33:43 51°29.156 2°52.709 5.1 117 9.1 101290 92
2001-11-29 09:33:47 51°29.168 2°52.696 3.6 121 9.1 101290 92
2001-11-29 09:33:53 51°29.187 2°52.679 3.5 113 9.2 101290 92
2001-11-29 09:33:58 51°29.202 2°52.664 1.6 80 9.2 101290 92
2001-11-29 09:34:03 51°29.218 2°52.649 6 126 9.2 101290 92
2001-11-29 09:34:08 51°29.234 2°52.634 4.8 113 9.2 101290 92
2001-11-29 09:34:13 51°29.249 2°52.616 3.3 118 9.2 101280 92
2001-11-29 09:34:17 51°29.263 2°52.606 1.9 114 9.2 101280 92
2001-11-29 09:34:23 51°29.28 2°52.584 1.8 108 9.2 101280 92
2001-11-29 09:34:28 51°29.296 2°52.569 0.3 73 9.2 101280 92
2001-11-29 09:34:33 51°29.311 2°52.551 1 99 9.2 101270 92
2001-11-29 09:34:37 51°29.323 2°52.538 1.9 101 9.2 101270 92
2001-11-29 09:34:41 51°29.335 2°52.524 3.2 95 9.2 101260 92
2001-11-29 09:34:48 51°29.354 2°52.498 2.3 101 9.2 101260 92
2001-11-29 09:34:53 51°29.367 2°52.478 3.4 57 9.2 101280 92
2001-11-29 09:34:57 51°29.377 2°52.462 4.2 28 9.2 101280 92
2001-11-29 09:35:03 51°29.39 2°52.434 6.1 324 9.2 101270 92
2001-11-29 09:35:08 51°29.399 2°52.41 13.1 355 9.2 101270 92
2001-11-29 09:35:13 51°29.405 2°52.385 11.6 340 9.2 101270 92
2001-11-29 09:35:17 51°29.41 2°52.365 8.9 254 9.2 101270 92
2001-11-29 09:35:23 51°29.414 2°52.334 13.3 54 9.2 101260 92
2001-11-29 09:35:28 51°29.415 2°52.308 13.3 67 9.2 101260 92
2001-11-29 09:35:33 51°29.414 2°52.284 11 55 9.2 101250 92
2001-11-29 09:35:38 51°29.412 2°52.259 13.3 60 9.2 101250 92
2001-11-29 09:35:43 51°29.409 2°52.237 14.8 54 9.2 101240 92
2001-11-29 09:35:48 51°29.404 2°52.218 19.2 57 9.2 101240 92
2001-11-29 09:35:53 51°29.4 2°52.202 23.1 53 9.2 101200 92
2001-11-29 09:35:57 51°29.396 2°52.19 21.9 50 9.2 101200 92
2001-11-29 09:36:03 51°29.391 2°52.172 12.8 52 9.2 101220 92
2001-11-29 09:36:08 51°29.386 2°52.158 20 54 9.2 101220 92
2001-11-29 09:36:13 51°29.382 2°52.143 19.2 50 9.2 101230 92
2001-11-29 09:36:17 51°29.379 2°52.131 13.9 54 9.2 101230 92
2001-11-29 09:36:23 51°29.375 2°52.114 16.2 54 9.2 101220 92
2001-11-29 09:36:28 51°29.371 2°52.099 20 58 9.2 101220 92
2001-11-29 09:36:33 51°29.367 2°52.083 12 56 9.2 101210 92
2001-11-29 09:36:37 51°29.364 2°52.071 18.5 51 9.2 101210 92
2001-11-29 09:36:43 51°29.36 2°52.053 22.5 132 9.2 101220 92
2001-11-29 09:36:48 51°29.356 2°52.037 14.4 52 9.2 101220 92
2001-11-29 09:36:53 51°29.352 2°52.02 19.2 48 9.2 101210 92
2001-11-29 09:36:58 51°29.348 2°52.003 19.6 47 9.2 101210 92
2001-11-29 09:37:03 51°29.343 2°51.987 23.9 47 9.2 101210 92
2001-11-29 09:37:08 51°29.339 2°51.969 18.7 46 9.2 101210 92
2001-11-29 09:37:13 51°29.334 2°51.952 17.3 122 9.2 101210 92
2001-11-29 09:37:17 51°29.331 2°51.937 18.4 48 9.2 101210 92
2001-11-29 09:37:23 51°29.325 2°51.915 21.8 49 9.2 101200 92
2001-11-29 09:37:28 51°29.32 2°51.897 20.1 49 9.2 101200 92
2001-11-29 09:37:33 51°29.316 2°51.879 18.6 48 9.2 101200 92
2001-11-29 09:37:39 51°29.31 2°51.859 23.3 129 9.2 101200 92
2001-11-29 09:37:43 51°29.307 2°51.845 23.2 45 9.3 101210 92
2001-11-29 09:37:48 51°29.301 2°51.828 17.4 53 9.3 101210 92
2001-11-29 09:37:53 51°29.297 2°51.81 22.4 51 9.2 101190 92
2001-11-29 09:37:57 51°29.293 2°51.795 16.6 51 9.2 101190 92
2001-11-29 09:38:03 51°29.287 2°51.773 20.8 47 9.3 101220 92
2001-11-29 09:38:08 51°29.283 2°51.755 20.5 54 9.3 101220 92
2001-11-29 09:38:13 51°29.278 2°51.736 11.9 45 9.3 101200 92
2001-11-29 09:38:17 51°29.275 2°51.722 16.5 57 9.3 101200 92
2001-11-29 09:38:21 51°29.271 2°51.707 21 52 9.3 101190 92
2001-11-29 09:38:28 51°29.265 2°51.681 19 52 9.3 101190 92
2001-11-29 09:38:33 51°29.26 2°51.663 25 50 9.2 101200 92
2001-11-29 09:38:37 51°29.257 2°51.648 15.6 53 9.2 101200 92
2001-11-29 09:38:43 51°29.251 2°51.625 19.8 52 9.3 101190 92
2001-11-29 09:38:47 51°29.247 2°51.61 23.5 50 9.3 101190 92
2001-11-29 09:38:53 51°29.241 2°51.588 19.7 52 9.3 101210 92
2001-11-29 09:38:57 51°29.238 2°51.573 16.5 48 9.3 101210 92
2001-11-29 09:39:03 51°29.232 2°51.55 18.1 54 9.3 101200 92
2001-11-29 09:39:09 51°29.226 2°51.53 24.2 46 9.3 101200 92
2001-11-29 09:39:13 51°29.222 2°51.515 20.1 46 9.3 101210 92
2001-11-29 09:39:18 51°29.217 2°51.495 16.6 54 9.3 101210 92
2001-11-29 09:39:23 51°29.212 2°51.476 18.7 52 9.3 101210 92
2001-11-29 09:39:28 51°29.207 2°51.456 15 50 9.3 101210 92
2001-11-29 09:39:33 51°29.201 2°51.437 22.4 48 9.3 101180 92
2001-11-29 09:39:38 51°29.197 2°51.416 24.7 128 9.3 101180 92
2001-11-29 09:39:43 51°29.191 2°51.398 23.6 47 9.3 101190 92
2001-11-29 09:39:48 51°29.187 2°51.378 15.1 55 9.3 101190 92
2001-11-29 09:39:53 51°29.181 2°51.359 15.3 54 9.3 101190 92
2001-11-29 09:39:58 51°29.176 2°51.339 25.7 46 9.3 101190 92
2001-11-29 09:40:03 51°29.17 2°51.321 22.3 48 9.3 101200 92
2001-11-29 09:40:07 51°29.166 2°51.304 25.6 134 9.3 101200 92
2001-11-29 09:40:13 51°29.16 2°51.281 25.7 47 9.3 101200 92
2001-11-29 09:40:18 51°29.154 2°51.261 15.6 48 9.3 101200 92
2001-11-29 09:40:23 51°29.149 2°51.241 18.9 51 9.3 101170 92
2001-11-29 09:40:28 51°29.144 2°51.222 10.8 57 9.3 101170 92
2001-11-29 09:40:33 51°29.139 2°51.203 12.9 49 9.3 101210 92
2001-11-29 09:40:38 51°29.135 2°51.185 18.3 60 9.3 101210 92
2001-11-29 09:40:43 51°29.13 2°51.167 21.3 134 9.3 101190 92
2001-11-29 09:40:48 51°29.126 2°51.15 26.4 52 9.3 101190 92
2001-11-29 09:40:53 51°29.121 2°51.131 16 58 9.2 101190 92
2001-11-29 09:40:58 51°29.117 2°51.114 14.6 55 9.2 101190 92
2001-11-29 09:41:03 51°29.113 2°51.096 14 53 9.3 101180 92
2001-11-29 09:41:08 51°29.108 2°51.08 22.6 60 9.3 101180 92
2001-11-29 09:41:13 51°29.103 2°51.063 25.5 46 9.3 101210 92
2001-11-29 09:41:18 51°29.099 2°51.046 16 52 9.3 101210 92
2001-11-29 09:41:23 51°29.094 2°51.029 25.3 130 9.3 101180 92
2001-11-29 09:41:28 51°29.09 2°51.012 19.4 48 9.3 101180 92
2001-11-29 09:41:33 51°29.086 2°50.995 20.1 46 9.3 101200 92
2001-11-29 09:41:37 51°29.082 2°50.981 24.1 132 9.3 101200 92
2001-11-29 09:41:41 51°29.078 2°50.966 17.7 55 9.3 101180 92
2001-11-29 09:41:48 51°29.072 2°50.942 20.5 46 9.3 101180 92
2001-11-29 09:41:53 51°29.067 2°50.923 19.3 57 9.3 101200 92
2001-11-29 09:41:57 51°29.063 2°50.908 13.4 56 9.3 101200 92
2001-11-29 09:42:03 51°29.057 2°50.885 14.9 56 9.3 101190 92
2001-11-29 09:42:08 51°29.052 2°50.866 21.8 130 9.3 101190 92
2001-11-29 09:42:13 51°29.047 2°50.846 19.1 50 9.3 101200 92
2001-11-29 09:42:18 51°29.042 2°50.827 24.6 48 9.3 101200 92
2001-11-29 09:42:23 51°29.037 2°50.808 19.6 52 9.3 101180 92
2001-11-29 09:42:28 51°29.032 2°50.789 19.8 58 9.3 101180 92
2001-11-29 09:42:33 51°29.027 2°50.77 17.7 48 9.3 101190 92
2001-11-29 09:42:37 51°29.023 2°50.754 17.9 53 9.3 101190 92
2001-11-29 09:42:43 51°29.016 2°50.731 23.7 126 9.3 101180 92
2001-11-29 09:42:48 51°29.011 2°50.711 18.6 45 9.3 101180 92
2001-11-29 09:42:53 51°29.005 2°50.693 19 48 9.3 101180 92
2001-11-29 09:42:58 51°29.001 2°50.676 16 56 9.3 101180 92
2001-11-29 09:43:03 51°28.996 2°50.659 15.9 56 9.3 101190 92
2001-11-29 09:43:08 51°28.993 2°50.641 15.5 50 9.3 101190 92
2001-11-29 09:43:13 51°28.988 2°50.622 16.5 51 9.3 101190 92
2001-11-29 09:43:17 51°28.984 2°50.607 14.6 52 9.3 101190 92
2001-11-29 09:43:21 51°28.981 2°50.592 20.9 50 9.3 101190 92
2001-11-29 09:43:28 51°28.975 2°50.566 12.4 58 9.3 101190 92
2001-11-29 09:43:33 51°28.97 2°50.547 18.2 56 9.3 101170 92
2001-11-29 09:43:38 51°28.966 2°50.529 21.7 53 9.3 101170 92
2001-11-29 09:43:43 51°28.962 2°50.51 17 50 9.3 101170 92
2001-11-29 09:43:48 51°28.958 2°50.491 18.5 49 9.3 101170 92
2001-11-29 09:43:53 51°28.953 2°50.472 19.9 52 9.3 101220 92
2001-11-29 09:43:57 51°28.95 2°50.456 14.4 52 9.3 101220 92
2001-11-29 09:44:03 51°28.944 2°50.433 15.7 49 9.3 101180 92
2001-11-29 09:44:08 51°28.939 2°50.413 17.6 48 9.3 101180 92
2001-11-29 09:44:13 51°28.935 2°50.394 16.4 50 9.3 101180 92
2001-11-29 09:44:19 51°28.93 2°50.372 14.9 60 9.3 101180 92
2001-11-29 09:44:23 51°28.926 2°50.358 14.2 57 9.3 101180 92
2001-11-29 09:44:28 51°28.922 2°50.34 19 56 9.3 101180 92
2001-11-29 09:44:33 51°28.918 2°50.322 15.5 48 9.3 101190 92
2001-11-29 09:44:38 51°28.914 2°50.304 11.8 54 9.3 101190 92
2001-11-29 09:44:43 51°28.91 2°50.286 15 54 9.3 101210 92
2001-11-29 09:44:48 51°28.906 2°50.267 16.2 52 9.3 101210 92
2001-11-29 09:44:53 51°28.902 2°50.249 21.7 51 9.3 101190 92
2001-11-29 09:44:58 51°28.898 2°50.23 15.3 56 9.3 101190 92
2001-11-29 09:45:03 51°28.893 2°50.212 21.7 122 9.3 101200 92
2001-11-29 09:45:08 51°28.889 2°50.192 12.8 47 9.3 101200 92
2001-11-29 09:45:13 51°28.885 2°50.173 14 46 9.3 101180 92
2001-11-29 09:45:18 51°28.88 2°50.155 16.3 52 9.3 101180 92
2001-11-29 09:45:23 51°28.876 2°50.136 13 57 9.3 101180 92
2001-11-29 09:45:28 51°28.871 2°50.116 15.3 57 9.3 101180 92
2001-11-29 09:45:33 51°28.866 2°50.096 16.2 52 9.3 101180 92
2001-11-29 09:45:37 51°28.862 2°50.08 17.4 53 9.3 101180 92
2001-11-29 09:45:43 51°28.856 2°50.056 25.8 56 9.3 101190 92
2001-11-29 09:45:47 51°28.853 2°50.04 19.7 49 9.3 101190 92
2001-11-29 09:45:53 51°28.847 2°50.015 16.3 54 9.3 101190 92
2001-11-29 09:45:57 51°28.844 2°49.999 15.5 50 9.3 101190 92
2001-11-29 09:46:03 51°28.838 2°49.976 15.4 54 9.3 101190 92
2001-11-29 09:46:08 51°28.834 2°49.957 14.3 53 9.3 101190 92
2001-11-29 09:46:13 51°28.83 2°49.938 16.7 56 9.3 101160 92
2001-11-29 09:46:18 51°28.825 2°49.92 17.3 56 9.3 101160 92
2001-11-29 09:46:23 51°28.821 2°49.902 15 62 9.3 101180 92
2001-11-29 09:46:28 51°28.818 2°49.884 20.9 48 9.3 101180 92
2001-11-29 09:46:33 51°28.813 2°49.865 18 49 9.3 101190 92
2001-11-29 09:46:38 51°28.809 2°49.846 19.3 46 9.3 101190 92
2001-11-29 09:46:43 51°28.805 2°49.828 20.4 46 9.3 101160 92
2001-11-29 09:46:48 51°28.801 2°49.809 19.7 50 9.3 101160 92
2001-11-29 09:46:53 51°28.797 2°49.791 20 47 9.3 101180 92
2001-11-29 09:46:58 51°28.793 2°49.772 13 57 9.3 101180 92
2001-11-29 09:47:03 51°28.789 2°49.754 11.4 54 9.3 101180 92
2001-11-29 09:47:08 51°28.785 2°49.736 17.3 125 9.3 101180 92
2001-11-29 09:47:13 51°28.781 2°49.719 19.8 48 9.4 101180 92
2001-11-29 09:47:18 51°28.777 2°49.702 19.7 54 9.4 101180 92
2001-11-29 09:47:23 51°28.773 2°49.684 19.1 56 9.4 101190 92
2001-11-29 09:47:28 51°28.77 2°49.666 12.3 54 9.4 101190 92
2001-11-29 09:47:33 51°28.766 2°49.649 12.2 58 9.3 101180 92
2001-11-29 09:47:37 51°28.763 2°49.634 11 52 9.3 101180 92
2001-11-29 09:47:43 51°28.758 2°49.613 11.6 53 9.3 101200 92
2001-11-29 09:47:49 51°28.754 2°49.591 20.4 52 9.3 101200 92
2001-11-29 09:47:53 51°28.751 2°49.577 16.5 53 9.3 101160 92
2001-11-29 09:47:58 51°28.748 2°49.56 12.7 63 9.3 101160 92
2001-11-29 09:48:03 51°28.744 2°49.541 18.9 49 9.3 101170 92
2001-11-29 09:48:08 51°28.74 2°49.523 13.7 51 9.3 101170 92
2001-11-29 09:48:13 51°28.736 2°49.505 24 46 9.4 101200 92
2001-11-29 09:48:18 51°28.732 2°49.486 13 50 9.4 101200 92
2001-11-29 09:48:23 51°28.728 2°49.47 16.6 52 9.3 101190 92
2001-11-29 09:48:28 51°28.724 2°49.454 13.5 58 9.3 101190 92
2001-11-29 09:48:33 51°28.72 2°49.437 13.9 49 9.3 101180 92
2001-11-29 09:48:38 51°28.717 2°49.421 14.7 52 9.3 101180 92
2001-11-29 09:48:43 51°28.713 2°49.407 12.2 48 9.3 101170 92
2001-11-29 09:48:48 51°28.71 2°49.393 14.2 52 9.3 101170 92
2001-11-29 09:48:53 51°28.707 2°49.379 18.9 65 9.3 101200 92
2001-11-29 09:48:58 51°28.704 2°49.364 21.2 123 9.3 101200 92
2001-11-29 09:49:03 51°28.701 2°49.35 16.3 63 9.4 101160 92
2001-11-29 09:49:08 51°28.698 2°49.333 10 59 9.4 101160 92
2001-11-29 09:49:13 51°28.694 2°49.317 12.7 54 9.3 101220 92
2001-11-29 09:49:18 51°28.69 2°49.302 22.9 49 9.3 101220 92
2001-11-29 09:49:23 51°28.687 2°49.284 17.1 49 9.3 101180 92
2001-11-29 09:49:28 51°28.683 2°49.266 25 47 9.3 101180 92
2001-11-29 09:49:33 51°28.68 2°49.248 15.6 48 9.3 101180 92
2001-11-29 09:49:37 51°28.677 2°49.234 15.4 52 9.3 101180 92
2001-11-29 09:49:43 51°28.672 2°49.213 23.1 48 9.3 101190 92
2001-11-29 09:49:48 51°28.669 2°49.196 16.3 50 9.3 101190 92
2001-11-29 09:49:53 51°28.665 2°49.178 14 51 9.3 101180 92
2001-11-29 09:49:59 51°28.661 2°49.158 15.2 56 9.3 101180 92
2001-11-29 09:50:03 51°28.659 2°49.144 13 59 9.3 101170 92
2001-11-29 09:50:08 51°28.655 2°49.127 15 56 9.3 101170 92
2001-11-29 09:50:13 51°28.651 2°49.108 17.6 61 9.3 101180 92
2001-11-29 09:50:18 51°28.647 2°49.089 23.5 52 9.3 101180 92
2001-11-29 09:50:23 51°28.643 2°49.071 19.1 56 9.3 101160 92
2001-11-29 09:50:28 51°28.639 2°49.052 19.3 52 9.3 101160 92
2001-11-29 09:50:33 51°28.633 2°49.035 17.1 52 9.3 101170 92
2001-11-29 09:50:38 51°28.628 2°49.018 24.4 39 9.3 101170 92
2001-11-29 09:50:43 51°28.622 2°49.002 23.2 42 9.3 101170 92
2001-11-29 09:50:48 51°28.615 2°48.987 25.9 42 9.3 101170 92
2001-11-29 09:50:53 51°28.607 2°48.972 24.3 33 9.3 101150 92
2001-11-29 09:50:57 51°28.601 2°48.962 24.6 35 9.3 101150 92
2001-11-29 09:51:01 51°28.593 2°48.952 25.2 27 9.3 101180 92
2001-11-29 09:51:08 51°28.58 2°48.935 22.4 22 9.3 101180 92
2001-11-29 09:51:13 51°28.57 2°48.924 22.2 27 9.3 101160 92
2001-11-29 09:51:17 51°28.562 2°48.917 21.8 20 9.3 101160 92
2001-11-29 09:51:23 51°28.548 2°48.908 20.4 11 9.3 101170 92
2001-11-29 09:51:28 51°28.536 2°48.903 20.5 4 9.3 101170 92
2001-11-29 09:51:33 51°28.524 2°48.898 21 9 9.3 101180 92
2001-11-29 09:51:37 51°28.514 2°48.895 23.2 7 9.3 101180 92
2001-11-29 09:51:43 51°28.499 2°48.892 19.7 359 9.3 101210 92
2001-11-29 09:51:48 51°28.486 2°48.892 22.9   9.3 101210 92
2001-11-29 09:51:53 51°28.473 2°48.893 23.3 360 9.3 101220 92
2001-11-29 09:51:57 51°28.462 2°48.893 20.8 6 9.3 101220 92
2001-11-29 09:52:01 51°28.452 2°48.896 24.1 2 9.4 101220 92
2001-11-29 09:52:08 51°28.433 2°48.899 22.9 1 9.4 101220 92
2001-11-29 09:52:13 51°28.42 2°48.902 22.6 358 9.4 101200 92
2001-11-29 09:52:17 51°28.409 2°48.904 22.7 359 9.4 101200 92
2001-11-29 09:52:23 51°28.392 2°48.909 20.7 357 9.4 101210 92
2001-11-29 09:52:28 51°28.377 2°48.913 20.9 358 9.4 101210 92
2001-11-29 09:52:33 51°28.362 2°48.917 22.6 3 9.4 101190 92
2001-11-29 09:52:37 51°28.35 2°48.921 20.8 356 9.4 101190 92
2001-11-29 09:52:43 51°28.331 2°48.923 23.3 4 9.4 101210 92
2001-11-29 09:52:48 51°28.316 2°48.928 21.9 360 9.4 101210 92
2001-11-29 09:52:53 51°28.3 2°48.931 23.7 357 9.4 101200 92
2001-11-29 09:52:57 51°28.287 2°48.933 23.6 359 9.4 101200 92
2001-11-29 09:53:03 51°28.268 2°48.938 25.5 5 9.4 101190 92
2001-11-29 09:53:08 51°28.252 2°48.942 24.3 5 9.4 101190 92
2001-11-29 09:53:13 51°28.236 2°48.945 26.2 360 9.4 101190 92
2001-11-29 09:53:17 51°28.223 2°48.948 25.6 1 9.4 101190 92
2001-11-29 09:53:23 51°28.204 2°48.951 23.6 360 9.4 101190 92
2001-11-29 09:53:28 51°28.188 2°48.954 25.1 1 9.4 101190 92
2001-11-29 09:53:33 51°28.172 2°48.958 24.9 359 9.4 101190 92
2001-11-29 09:53:37 51°28.158 2°48.961 21.4 2 9.4 101190 92
2001-11-29 09:53:43 51°28.139 2°48.966 22.7 5 9.4 101180 92
2001-11-29 09:53:48 51°28.123 2°48.969 21 358 9.4 101180 92
2001-11-29 09:53:53 51°28.107 2°48.975 23.1 5 9.4 101190 92
2001-11-29 09:53:57 51°28.093 2°48.979 24.2 359 9.4 101190 92
2001-11-29 09:54:03 51°28.074 2°48.986 25.3 359 9.4 101170 92
2001-11-29 09:54:08 51°28.058 2°48.993 21.6 1 9.4 101170 92
2001-11-29 09:54:13 51°28.042 2°48.999 22.5 358 9.4 101200 92
2001-11-29 09:54:18 51°28.026 2°49.004 22 356 9.4 101200 92
2001-11-29 09:54:23 51°28.01 2°49.011 21 356 9.4 101190 92
2001-11-29 09:54:28 51°27.994 2°49.015 22.2 357 9.4 101190 92
2001-11-29 09:54:33 51°27.978 2°49.021 21.4 354 9.4 101180 92
2001-11-29 09:54:37 51°27.965 2°49.025 22.2 356 9.4 101180 92
2001-11-29 09:54:43 51°27.945 2°49.031 20.8 356 9.4 101180 92
2001-11-29 09:54:48 51°27.929 2°49.037 24.6 357 9.4 101180 92
2001-11-29 09:54:53 51°27.912 2°49.041 25.6 2 9.4 101200 92
2001-11-29 09:54:58 51°27.896 2°49.048 22.1 360 9.4 101200 92
2001-11-29 09:55:03 51°27.879 2°49.053 22.7 354 9.4 101210 92
2001-11-29 09:55:08 51°27.863 2°49.058 21.2 356 9.4 101210 92
2001-11-29 09:55:13 51°27.846 2°49.063 25.6 359 9.4 101200 92
2001-11-29 09:55:18 51°27.83 2°49.068 23.4 357 9.4 101200 92
2001-11-29 09:55:23 51°27.814 2°49.073 21.9 358 9.4 101180 92
2001-11-29 09:55:28 51°27.798 2°49.079 23.3 357 9.4 101180 92
2001-11-29 09:55:33 51°27.781 2°49.085 22.6 359 9.4 101180 92
2001-11-29 09:55:37 51°27.768 2°49.094 21.8 354 9.4 101180 92
2001-11-29 09:55:43 51°27.749 2°49.103 23.4 354 9.4 101170 92
2001-11-29 09:55:47 51°27.736 2°49.11 22.9 354 9.4 101170 92
2001-11-29 09:55:53 51°27.717 2°49.122 20.6 347 9.4 101180 92
2001-11-29 09:55:58 51°27.701 2°49.132 22.5 347 9.4 101180 92
2001-11-29 09:56:03 51°27.685 2°49.142 22.4 344 9.3 101170 92
2001-11-29 09:56:08 51°27.669 2°49.153 19.3 348 9.3 101170 92
2001-11-29 09:56:13 51°27.654 2°49.163 20.8 349 9.4 101170 92
2001-11-29 09:56:18 51°27.638 2°49.173 20.7 349 9.4 101170 92
2001-11-29 09:56:23 51°27.622 2°49.184 20 352 9.3 101170 92
2001-11-29 09:56:28 51°27.606 2°49.195 22.5 350 9.3 101170 92
2001-11-29 09:56:33 51°27.59 2°49.204 21.5 354 9.4 101180 92
2001-11-29 09:56:37 51°27.577 2°49.214 21.5 350 9.4 101180 92
2001-11-29 09:56:43 51°27.558 2°49.226 20.7 352 9.4 101170 92
2001-11-29 09:56:47 51°27.544 2°49.233 23.5 355 9.4 101170 92
2001-11-29 09:56:53 51°27.525 2°49.245 21.3 359 9.4 101190 92
2001-11-29 09:56:58 51°27.509 2°49.256 20.4 353 9.4 101190 92
2001-11-29 09:57:03 51°27.492 2°49.265 21.8 356 9.4 101170 92
2001-11-29 09:57:08 51°27.475 2°49.275 22 348 9.4 101170 92
2001-11-29 09:57:13 51°27.459 2°49.284 20.6 353 9.4 101180 92
2001-11-29 09:57:18 51°27.442 2°49.294 24.2 351 9.4 101180 92
2001-11-29 09:57:23 51°27.425 2°49.304 21.3 351 9.4 101190 92
2001-11-29 09:57:28 51°27.408 2°49.312 21.5 355 9.4 101190 92
2001-11-29 09:57:33 51°27.391 2°49.322 21.2 356 9.4 101180 92
2001-11-29 09:57:38 51°27.374 2°49.332 20.1 349 9.4 101180 92
2001-11-29 09:57:43 51°27.357 2°49.342 23.8 2 9.4 101170 92
2001-11-29 09:57:48 51°27.341 2°49.352 23.7 355 9.4 101170 92
2001-11-29 09:57:53 51°27.324 2°49.364 20.8 355 9.4 101170 92
2001-11-29 09:57:57 51°27.311 2°49.373 22.5 351 9.4 101170 92
2001-11-29 09:58:03 51°27.292 2°49.389 22 345 9.4 101170 92
2001-11-29 09:58:07 51°27.279 2°49.397 23.2 341 9.4 101170 92
2001-11-29 09:58:13 51°27.26 2°49.414 23.4 348 9.4 101180 92
2001-11-29 09:58:18 51°27.243 2°49.427 21.6 343 9.4 101180 92
2001-11-29 09:58:23 51°27.227 2°49.439 20.2 344 9.4 101170 92
2001-11-29 09:58:28 51°27.212 2°49.453 21.1 341 9.4 101170 92
2001-11-29 09:58:33 51°27.195 2°49.466 20.1 349 9.4 101170 92
2001-11-29 09:58:37 51°27.182 2°49.477 23.1 349 9.4 101170 92
2001-11-29 09:58:43 51°27.163 2°49.493 21.7 346 9.3 101160 92
2001-11-29 09:58:47 51°27.15 2°49.502 25.3 359 9.3 101160 92
2001-11-29 09:58:53 51°27.131 2°49.518 23 346 9.3 101170 92
2001-11-29 09:58:58 51°27.114 2°49.531 23.8 344 9.3 101170 92
2001-11-29 09:59:03 51°27.098 2°49.543 20.4 356 9.4 101170 92
2001-11-29 09:59:08 51°27.082 2°49.556 20.1 349 9.4 101170 92
2001-11-29 09:59:13 51°27.066 2°49.568 21.4 351 9.3 101160 92
2001-11-29 09:59:18 51°27.05 2°49.578 22.5 354 9.3 101160 92
2001-11-29 09:59:23 51°27.034 2°49.592 21.9 344 9.3 101150 92
2001-11-29 09:59:28 51°27.017 2°49.602 22.8 350 9.3 101150 92
2001-11-29 09:59:33 51°27.001 2°49.615 18.8 346 9.3 101180 92
2001-11-29 09:59:37 51°26.987 2°49.623 22.3 353 9.3 101180 92
2001-11-29 09:59:43 51°26.967 2°49.636 19.9 353 9.3 101160 92
2001-11-29 09:59:48 51°26.951 2°49.649 22 347 9.3 101160 92
2001-11-29 09:59:53 51°26.934 2°49.659 21.3 349 9.3 101160 92
2001-11-29 09:59:57 51°26.922 2°49.669 21.5 344 9.3 101160 92
2001-11-29 10:00:03 51°26.902 2°49.682 22 351 9.3 101170 92
2001-11-29 10:00:08 51°26.885 2°49.694 21.7 352 9.3 101170 92
2001-11-29 10:00:13 51°26.869 2°49.706 23.4 347 9.3 101190 92
2001-11-29 10:00:18 51°26.852 2°49.717 22.7 345 9.3 101190 92
2001-11-29 10:00:23 51°26.836 2°49.729 20.9 349 9.3 101170 92
2001-11-29 10:00:28 51°26.819 2°49.742 23 352 9.3 101170 92
2001-11-29 10:00:33 51°26.803 2°49.753 21.9 353 9.3 101160 92
2001-11-29 10:00:38 51°26.787 2°49.766 21.4 353 9.3 101160 92
2001-11-29 10:00:43 51°26.771 2°49.777 20.2 350 9.3 101160 92
2001-11-29 10:00:48 51°26.754 2°49.79 23.1 356 9.3 101160 92
2001-11-29 10:00:53 51°26.738 2°49.802 23.6 352 9.3 101170 92
2001-11-29 10:00:57 51°26.725 2°49.811 22.2 350 9.3 101170 92
2001-11-29 10:01:03 51°26.705 2°49.825 22.3 353 9.3 101170 92
2001-11-29 10:01:08 51°26.688 2°49.837 22.8 349 9.3 101170 92
2001-11-29 10:01:13 51°26.673 2°49.85 22.5 353 9.3 101170 92
2001-11-29 10:01:17 51°26.66 2°49.86 24.4 353 9.3 101170 92
2001-11-29 10:01:23 51°26.64 2°49.874 24.7 352 9.3 101170 92
2001-11-29 10:01:27 51°26.627 2°49.883 24.4 353 9.3 101170 92
2001-11-29 10:01:33 51°26.607 2°49.899 24.8 348 9.3 101160 92
2001-11-29 10:01:38 51°26.591 2°49.911 22.1 351 9.3 101160 92
2001-11-29 10:01:43 51°26.574 2°49.921 21.9 359 9.3 101160 92
2001-11-29 10:01:48 51°26.558 2°49.934 20.1 350 9.3 101160 92
2001-11-29 10:01:53 51°26.542 2°49.947 19.9 350 9.3 101150 92
2001-11-29 10:01:57 51°26.529 2°49.957 22.8 348 9.3 101150 92
2001-11-29 10:02:03 51°26.509 2°49.971 19.6 354 9.3 101160 92
2001-11-29 10:02:08 51°26.493 2°49.985 21.1 357 9.3 101160 92
2001-11-29 10:02:13 51°26.476 2°49.997 21.8 344 9.3 101170 92
2001-11-29 10:02:17 51°26.463 2°50.007 23.7 343 9.3 101170 92
2001-11-29 10:02:21 51°26.45 2°50.016 23.7 351 9.3 101170 92
2001-11-29 10:02:28 51°26.427 2°50.034 21.7 350 9.3 101170 92
2001-11-29 10:02:33 51°26.411 2°50.046 23.5 352 9.3 101170 92
2001-11-29 10:02:37 51°26.398 2°50.054 22.3 351 9.3 101170 92
2001-11-29 10:02:43 51°26.379 2°50.071 23.2 352 9.3 101170 92
2001-11-29 10:02:48 51°26.362 2°50.083 24.2 351 9.3 101170 92
2001-11-29 10:02:53 51°26.346 2°50.096 22.3 344 9.3 101170 92
2001-11-29 10:02:57 51°26.333 2°50.105 22.7 347 9.3 101170 92
2001-11-29 10:03:03 51°26.313 2°50.12 23.2 352 9.3 101160 92
2001-11-29 10:03:08 51°26.297 2°50.133 22.1 355 9.3 101160 92
2001-11-29 10:03:13 51°26.28 2°50.145 23.4 349 9.3 101160 92
2001-11-29 10:03:17 51°26.267 2°50.155 22.2 351 9.3 101160 92
2001-11-29 10:03:23 51°26.247 2°50.168 23.7 349 9.3 101160 92
2001-11-29 10:03:28 51°26.231 2°50.181 21.9 351 9.3 101160 92
2001-11-29 10:03:33 51°26.215 2°50.194 19.9 353 9.3 101170 92
2001-11-29 10:03:38 51°26.199 2°50.207 22.5 352 9.3 101170 92
2001-11-29 10:03:43 51°26.183 2°50.218 21.1 354 9.3 101160 92
2001-11-29 10:03:48 51°26.166 2°50.23 21.6 354 9.3 101160 92
2001-11-29 10:03:53 51°26.15 2°50.243 20.8 353 9.2 101170 92
2001-11-29 10:03:57 51°26.136 2°50.251 22.6 1 9.2 101170 92
2001-11-29 10:04:03 51°26.116 2°50.26 23.2 2 9.3 101180 92
2001-11-29 10:04:08 51°26.099 2°50.264 24.2 2 9.3 101180 92
2001-11-29 10:04:13 51°26.082 2°50.265 24.2 8 9.3 101180 92
2001-11-29 10:04:17 51°26.069 2°50.264 26.4 12 9.3 101180 92
2001-11-29 10:04:23 51°26.05 2°50.259 23 16 9.3 101170 92
2001-11-29 10:04:28 51°26.038 2°50.253 22.3 18 9.3 101170 92
2001-11-29 10:04:33 51°26.027 2°50.246 22.8 24 9.3 101210 92
2001-11-29 10:04:38 51°26.017 2°50.238 23.3 25 9.3 101210 92
2001-11-29 10:04:43 51°26.009 2°50.228 25.2 36 9.3 101180 92
2001-11-29 10:04:48 51°26.001 2°50.217 24.4 39 9.3 101180 92
2001-11-29 10:04:53 51°25.995 2°50.205 23.5 318 9.2 101210 92
2001-11-29 10:04:57 51°25.991 2°50.195 18.1 52 9.2 101210 92
2001-11-29 10:05:03 51°25.985 2°50.179 21.5 47 9.3 101210 92
2001-11-29 10:05:08 51°25.982 2°50.165 13.2 59 9.3 101210 92
2001-11-29 10:05:13 51°25.978 2°50.151 15.1 56 9.2 101180 92
2001-11-29 10:05:17 51°25.975 2°50.141 15.7 48 9.2 101180 92
2001-11-29 10:05:23 51°25.97 2°50.124 20.5 42 9.2 101180 92
2001-11-29 10:05:28 51°25.965 2°50.11 22.8 322 9.2 101180 92
2001-11-29 10:05:33 51°25.96 2°50.097 25.1 316 9.2 101190 92
2001-11-29 10:05:37 51°25.955 2°50.086 26.9 320 9.2 101190 92
2001-11-29 10:05:43 51°25.949 2°50.071 24.9 44 9.2 101180 92
2001-11-29 10:05:48 51°25.943 2°50.058 26.5 43 9.2 101180 92
2001-11-29 10:05:53 51°25.937 2°50.045 25.2 324 9.2 101200 92
2001-11-29 10:05:58 51°25.931 2°50.033 23.9 39 9.2 101200 92
2001-11-29 10:06:03 51°25.924 2°50.02 24.7 39 9.2 101180 92
2001-11-29 10:06:08 51°25.918 2°50.008 21.2 39 9.2 101180 92
2001-11-29 10:06:13 51°25.911 2°49.996 21.3 41 9.2 101160 92
2001-11-29 10:06:18 51°25.905 2°49.984 22.2 38 9.2 101160 92
2001-11-29 10:06:23 51°25.9 2°49.972 24 41 9.2 101180 92
2001-11-29 10:06:28 51°25.894 2°49.958 24.9 40 9.2 101180 92
2001-11-29 10:06:33 51°25.889 2°49.945 24.2 320 9.2 101160 92
2001-11-29 10:06:37 51°25.885 2°49.934 22.7 45 9.2 101160 92
2001-11-29 10:06:43 51°25.878 2°49.916 19.6 52 9.2 101160 92
2001-11-29 10:06:48 51°25.874 2°49.901 23.2 45 9.2 101160 92
2001-11-29 10:06:53 51°25.869 2°49.886 20.2 53 9.2 101180 92
2001-11-29 10:06:57 51°25.865 2°49.873 17.1 47 9.2 101180 92
2001-11-29 10:07:03 51°25.859 2°49.854 15.7 49 9.2 101170 92
2001-11-29 10:07:08 51°25.854 2°49.838 20.3 49 9.2 101170 92
2001-11-29 10:07:13 51°25.849 2°49.822 17.1 52 9.2 101160 92
2001-11-29 10:07:17 51°25.845 2°49.81 24.9 133 9.2 101160 92
2001-11-29 10:07:23 51°25.84 2°49.793 25.9 40 9.2 101180 92
2001-11-29 10:07:28 51°25.835 2°49.779 16.7 48 9.2 101180 92
2001-11-29 10:07:33 51°25.83 2°49.765 24.2 44 9.2 101180 92
2001-11-29 10:07:38 51°25.825 2°49.751 21.4 318 9.2 101180 92
2001-11-29 10:07:43 51°25.82 2°49.736 22 49 9.2 101200 92
2001-11-29 10:07:48 51°25.815 2°49.721 22.5 129 9.2 101200 92
2001-11-29 10:07:53 51°25.809 2°49.705 24.6 129 9.2 101170 92
2001-11-29 10:07:57 51°25.804 2°49.693 22.2 48 9.2 101170 92
2001-11-29 10:08:03 51°25.797 2°49.673 22 133 9.2 101170 92
2001-11-29 10:08:08 51°25.791 2°49.657 21.9 40 9.2 101170 92
2001-11-29 10:08:13 51°25.785 2°49.641 22.8 46 9.2 101170 92
2001-11-29 10:08:17 51°25.78 2°49.627 25.5 43 9.2 101170 92
2001-11-29 10:08:23 51°25.772 2°49.607 19.8 42 9.3 101160 92
2001-11-29 10:08:28 51°25.766 2°49.59 21.9 46 9.3 101160 92
2001-11-29 10:08:33 51°25.76 2°49.573 21.1 320 9.3 101170 92
2001-11-29 10:08:37 51°25.755 2°49.559 22.7 324 9.3 101170 92
2001-11-29 10:08:43 51°25.748 2°49.539 22 43 9.3 101170 92
2001-11-29 10:08:48 51°25.741 2°49.523 21.6 41 9.3 101170 92
2001-11-29 10:08:53 51°25.735 2°49.506 24.1 43 9.3 101180 92
2001-11-29 10:08:57 51°25.73 2°49.493 21.2 48 9.3 101180 92
2001-11-29 10:09:03 51°25.723 2°49.472 21.7 45 9.3 101180 92
2001-11-29 10:09:08 51°25.716 2°49.455 24.6 46 9.3 101180 92
2001-11-29 10:09:13 51°25.71 2°49.438 26.8 129 9.3 101170 92
2001-11-29 10:09:17 51°25.705 2°49.424 21.1 44 9.3 101170 92
2001-11-29 10:09:23 51°25.698 2°49.404 24.4 43 9.3 101170 92
2001-11-29 10:09:28 51°25.692 2°49.387 24.6 134 9.3 101170 92
2001-11-29 10:09:33 51°25.686 2°49.37 24.9 129 9.3 101170 92
2001-11-29 10:09:37 51°25.681 2°49.357 25 40 9.3 101170 92
2001-11-29 10:09:43 51°25.674 2°49.337 23.3 42 9.3 101170 92
2001-11-29 10:09:48 51°25.668 2°49.321 24.3 46 9.3 101170 92
2001-11-29 10:09:53 51°25.662 2°49.305 22 47 9.3 101160 92
2001-11-29 10:09:57 51°25.657 2°49.293 24.9 47 9.3 101160 92
2001-11-29 10:10:03 51°25.651 2°49.274 25.2 321 9.3 101150 92
2001-11-29 10:10:08 51°25.645 2°49.259 25.2 43 9.3 101150 92
2001-11-29 10:10:13 51°25.639 2°49.242 24.2 48 9.3 101170 92
2001-11-29 10:10:17 51°25.635 2°49.229 19.8 132 9.3 101170 92
2001-11-29 10:10:21 51°25.63 2°49.217 22.7 45 9.2 101150 92
2001-11-29 10:10:28 51°25.622 2°49.194 24.9 323 9.2 101150 92
2001-11-29 10:10:33 51°25.616 2°49.179 27 320 9.2 101180 92
2001-11-29 10:10:38 51°25.609 2°49.163 23.7 42 9.2 101180 92
2001-11-29 10:10:43 51°25.603 2°49.146 26 317 9.3 101160 92
2001-11-29 10:10:48 51°25.596 2°49.13 25 325 9.3 101160 92
2001-11-29 10:10:53 51°25.59 2°49.114 26 44 9.2 101160 92
2001-11-29 10:10:57 51°25.584 2°49.1 24.1 40 9.2 101160 92
2001-11-29 10:11:03 51°25.576 2°49.08 26.2 39 9.2 101160 92
2001-11-29 10:11:08 51°25.57 2°49.063 24.7 130 9.2 101160 92
2001-11-29 10:11:13 51°25.563 2°49.045 21.6 318 9.2 101160 92
2001-11-29 10:11:17 51°25.558 2°49.031 24.5 43 9.2 101160 92
2001-11-29 10:11:23 51°25.55 2°49.011 25.7 38 9.3 101160 92
2001-11-29 10:11:28 51°25.543 2°48.994 23 42 9.3 101160 92
2001-11-29 10:11:33 51°25.537 2°48.977 23.2 44 9.3 101170 92
2001-11-29 10:11:37 51°25.531 2°48.964 24.7 41 9.3 101170 92
2001-11-29 10:11:43 51°25.523 2°48.942 24.2 44 9.2 101150 92
2001-11-29 10:11:48 51°25.516 2°48.925 26 44 9.2 101150 92
2001-11-29 10:11:53 51°25.509 2°48.907 21.8 130 9.2 101160 92
2001-11-29 10:11:57 51°25.504 2°48.894 24.5 323 9.2 101160 92
2001-11-29 10:12:03 51°25.496 2°48.873 25.1 43 9.2 101160 92
2001-11-29 10:12:08 51°25.489 2°48.855 25.7 39 9.2 101160 92
2001-11-29 10:12:13 51°25.483 2°48.838 26.5 44 9.2 101150 92
2001-11-29 10:12:17 51°25.477 2°48.824 27.4 319 9.2 101150 92
2001-11-29 10:12:23 51°25.469 2°48.803 25.2 39 9.2 101170 92
2001-11-29 10:12:28 51°25.463 2°48.785 25.3 44 9.2 101170 92
2001-11-29 10:12:33 51°25.456 2°48.768 22.6 44 9.2 101150 92
2001-11-29 10:12:37 51°25.451 2°48.753 26.1 41 9.2 101150 92
2001-11-29 10:12:43 51°25.443 2°48.733 24.6 38 9.2 101150 92
2001-11-29 10:12:48 51°25.436 2°48.715 23.8 43 9.2 101150 92
2001-11-29 10:12:53 51°25.43 2°48.697 23.5 44 9.2 101150 92
2001-11-29 10:12:57 51°25.425 2°48.682 26.6 44 9.2 101150 92
2001-11-29 10:13:03 51°25.417 2°48.66 28.3 39 9.2 101140 92
2001-11-29 10:13:08 51°25.41 2°48.642 22.7 39 9.2 101140 92
2001-11-29 10:13:13 51°25.403 2°48.624 24.9 39 9.2 101170 92
2001-11-29 10:13:17 51°25.398 2°48.609 24.8 40 9.2 101170 92